createdAt,value
2022-12-11T00:00:58.591Z,53.30
2022-12-11T00:04:51.631Z,64.10
2022-12-11T00:08:42.506Z,31.50
2022-12-11T00:12:32.899Z,35.70
2022-12-11T00:16:26.898Z,31.60
2022-12-11T00:20:18.117Z,34.80
2022-12-11T00:24:08.316Z,41.50
2022-12-11T00:27:58.816Z,33.20
2022-12-11T00:31:49.071Z,43.10
2022-12-11T00:35:45.149Z,43.70
2022-12-11T00:39:35.201Z,30.10
2022-12-11T00:43:25.952Z,35.30
2022-12-11T00:47:16.050Z,33.50
2022-12-11T00:51:06.960Z,28.40
2022-12-11T00:54:57.465Z,32.30
2022-12-11T00:58:49.405Z,37.40
2022-12-11T01:02:39.837Z,29.00
2022-12-11T01:06:30.517Z,27.10
2022-12-11T01:10:24.159Z,24.40
2022-12-11T01:14:14.695Z,28.70
2022-12-11T01:18:05.405Z,24.30
2022-12-11T01:21:55.810Z,19.20
2022-12-11T01:25:46.401Z,21.90
2022-12-11T01:29:36.919Z,21.40
2022-12-11T01:33:28.343Z,20.10
2022-12-11T01:37:18.644Z,21.80
2022-12-11T01:41:09.864Z,19.70
2022-12-11T01:45:24.709Z,19.60
2022-12-11T01:49:21.081Z,20.00
2022-12-11T01:53:17.012Z,19.50
2022-12-11T01:57:10.180Z,23.80
2022-12-11T02:01:02.496Z,20.30
2022-12-11T02:04:52.623Z,23.20
2022-12-11T02:08:43.080Z,22.20
2022-12-11T02:12:51.888Z,27.60
2022-12-11T02:17:32.768Z,26.80
2022-12-11T02:21:28.776Z,25.00
2022-12-11T02:25:40.582Z,19.40
2022-12-11T02:29:39.179Z,25.40
2022-12-11T02:33:54.079Z,23.30
2022-12-11T02:37:48.553Z,20.70
2022-12-11T02:41:44.069Z,17.90
2022-12-11T02:45:36.346Z,21.50
2022-12-11T02:49:28.357Z,21.10
2022-12-11T02:53:22.638Z,19.90
2022-12-11T02:57:36.090Z,23.00
2022-12-11T03:01:27.503Z,21.40
2022-12-11T03:05:18.021Z,21.40
2022-12-11T03:09:08.423Z,17.80
2022-12-11T03:13:00.471Z,25.70
2022-12-11T03:17:38.789Z,30.00
2022-12-11T03:21:47.418Z,23.00
2022-12-11T03:25:53.487Z,28.00
2022-12-11T03:29:54.114Z,18.10
2022-12-11T03:33:48.164Z,18.20
2022-12-11T03:37:41.594Z,23.00
2022-12-11T03:41:34.368Z,17.00
2022-12-11T03:45:25.771Z,13.80
2022-12-11T03:49:19.962Z,12.40
2022-12-11T03:53:10.774Z,14.30
2022-12-11T03:57:04.350Z,16.20
2022-12-11T04:00:54.751Z,18.90
2022-12-11T04:04:45.360Z,17.10
2022-12-11T04:08:35.556Z,15.00
2022-12-11T04:12:25.855Z,17.10
2022-12-11T04:16:15.871Z,15.60
2022-12-11T04:20:25.808Z,13.10
2022-12-11T04:24:16.192Z,11.80
2022-12-11T04:28:06.342Z,12.90
2022-12-11T04:32:14.537Z,9.20
2022-12-11T04:36:08.159Z,15.00
2022-12-11T04:39:59.019Z,15.00
2022-12-11T04:43:49.005Z,13.20
2022-12-11T04:47:45.348Z,19.10
2022-12-11T04:51:35.543Z,16.20
2022-12-11T04:55:25.945Z,13.90
2022-12-11T04:59:16.449Z,16.90
2022-12-11T05:03:07.033Z,13.30
2022-12-11T05:06:57.662Z,13.50
2022-12-11T05:10:59.641Z,16.20
2022-12-11T05:14:54.748Z,14.10
2022-12-11T05:18:45.037Z,14.50
2022-12-11T05:22:35.453Z,13.20
2022-12-11T05:26:25.545Z,14.80
2022-12-11T05:30:15.741Z,16.70
2022-12-11T05:34:06.144Z,17.70
2022-12-11T05:37:56.512Z,19.40
2022-12-11T05:41:47.049Z,9.60
2022-12-11T05:45:37.250Z,12.90
2022-12-11T05:49:31.054Z,13.50
2022-12-11T05:53:21.739Z,14.60
2022-12-11T05:57:11.935Z,15.30
2022-12-11T06:01:03.257Z,15.90
2022-12-11T06:04:53.761Z,15.40
2022-12-11T06:08:44.265Z,17.40
2022-12-11T06:12:34.361Z,17.20
2022-12-11T06:16:25.540Z,14.50
2022-12-11T06:20:15.983Z,13.50
2022-12-11T06:24:07.104Z,17.70
2022-12-11T06:27:59.152Z,17.30
2022-12-11T06:31:49.300Z,18.10
2022-12-11T06:35:42.466Z,25.00
2022-12-11T06:39:34.684Z,16.60
2022-12-11T06:43:26.102Z,14.10
2022-12-11T06:47:16.478Z,16.00
2022-12-11T06:51:12.628Z,17.00
2022-12-11T06:55:03.336Z,29.00
2022-12-11T06:58:54.067Z,21.60
2022-12-11T07:02:44.126Z,16.50
2022-12-11T07:06:34.424Z,16.60
2022-12-11T07:10:24.934Z,13.90
2022-12-11T07:14:15.393Z,17.90
2022-12-11T07:18:05.937Z,19.00
2022-12-11T07:21:56.441Z,16.30
2022-12-11T07:25:46.744Z,16.50
2022-12-11T07:29:37.553Z,22.10
2022-12-11T07:33:27.958Z,33.70
2022-12-11T07:37:18.563Z,36.30
2022-12-11T07:41:12.147Z,22.20
2022-12-11T07:45:02.748Z,26.50
2022-12-11T07:48:53.407Z,37.20
2022-12-11T07:52:43.656Z,42.90
2022-12-11T07:56:35.485Z,26.50
2022-12-11T08:00:25.823Z,17.60
2022-12-11T08:04:16.289Z,20.80
2022-12-11T08:08:06.433Z,18.70
2022-12-11T08:11:56.887Z,17.70
2022-12-11T08:15:47.395Z,23.60
2022-12-11T08:19:37.795Z,26.20
2022-12-11T08:23:27.890Z,20.10
2022-12-11T08:27:18.499Z,20.30
2022-12-11T08:31:11.804Z,22.70
2022-12-11T08:35:02.282Z,21.70
2022-12-11T08:38:54.981Z,19.80
2022-12-11T08:42:45.428Z,18.70
2022-12-11T08:46:36.170Z,16.60
2022-12-11T08:50:26.847Z,19.90
2022-12-11T08:54:17.248Z,26.10
2022-12-11T08:58:07.448Z,18.10
2022-12-11T09:01:57.846Z,21.80
2022-12-11T09:05:48.697Z,33.40
2022-12-11T09:09:39.487Z,26.80
2022-12-11T09:13:34.627Z,27.70
2022-12-11T09:17:27.670Z,30.40
2022-12-11T09:21:21.230Z,37.40
2022-12-11T09:25:12.097Z,33.20
2022-12-11T09:29:05.142Z,37.00
2022-12-11T09:32:56.734Z,28.10
2022-12-11T09:36:48.799Z,40.70
2022-12-11T09:40:51.076Z,26.30
2022-12-11T09:44:48.824Z,31.90
2022-12-11T09:48:42.228Z,61.00
2022-12-11T09:52:42.429Z,49.40
2022-12-11T09:56:45.938Z,49.40
2022-12-11T10:00:49.314Z,26.00
2022-12-11T10:05:04.531Z,25.70
2022-12-11T10:09:01.279Z,21.00
2022-12-11T10:13:31.104Z,23.10
2022-12-11T10:17:28.682Z,26.80
2022-12-11T10:21:20.918Z,29.20
2022-12-11T10:25:25.742Z,44.80
2022-12-11T10:29:16.571Z,34.40
2022-12-11T10:33:34.929Z,33.00
2022-12-11T10:37:25.535Z,26.90
2022-12-11T10:41:22.203Z,41.40
2022-12-11T10:45:16.379Z,35.20
2022-12-11T10:49:07.390Z,25.00
2022-12-11T10:52:58.510Z,45.50
2022-12-11T10:56:49.833Z,48.00
2022-12-11T11:00:42.041Z,60.40
2022-12-11T11:04:38.173Z,32.50
2022-12-11T11:08:37.627Z,34.00
2022-12-11T11:12:28.645Z,28.70
2022-12-11T11:16:22.077Z,45.50
2022-12-11T11:20:19.507Z,87.40
2022-12-11T11:24:28.934Z,38.20
2022-12-11T11:29:05.562Z,40.20
2022-12-11T11:32:15.880Z,28.00
2022-12-11T11:36:08.244Z,21.80
2022-12-11T11:40:08.380Z,31.00
2022-12-11T11:44:03.359Z,33.00
2022-12-11T11:48:20.392Z,25.20
2022-12-11T11:52:30.966Z,21.90
2022-12-11T11:56:27.020Z,26.90
2022-12-11T12:00:33.854Z,21.60
2022-12-11T12:04:38.465Z,25.20
2022-12-11T12:08:54.733Z,31.20
2022-12-11T12:12:56.705Z,35.90
2022-12-11T12:17:12.335Z,28.20
2022-12-11T12:21:30.963Z,25.40
2022-12-11T12:25:45.633Z,34.40
2022-12-11T12:29:47.912Z,34.70
2022-12-11T12:34:02.419Z,33.10
2022-12-11T12:38:31.385Z,26.60
2022-12-11T12:42:29.467Z,22.60
2022-12-11T12:46:29.085Z,30.30
2022-12-11T12:50:23.683Z,29.00
2022-12-11T12:54:17.822Z,33.20
2022-12-11T12:58:45.143Z,25.10
2022-12-11T13:02:39.695Z,23.00
2022-12-11T13:06:36.597Z,23.80
2022-12-11T13:10:45.634Z,25.70
2022-12-11T13:14:06.647Z,34.50
2022-12-11T13:17:57.152Z,28.10
2022-12-11T13:22:15.509Z,21.80
2022-12-11T13:26:06.245Z,27.00
2022-12-11T13:30:17.253Z,30.60
2022-12-11T13:34:16.619Z,28.00
2022-12-11T13:38:16.854Z,37.20
2022-12-11T13:42:25.888Z,32.30
2022-12-11T13:46:27.164Z,21.10
2022-12-11T13:50:28.604Z,21.90
2022-12-11T13:54:20.542Z,27.10
2022-12-11T13:58:19.557Z,29.90
2022-12-11T14:02:33.396Z,85.80
2022-12-11T14:06:33.447Z,75.90
2022-12-11T14:10:28.178Z,63.20
2022-12-11T14:14:36.103Z,57.90
2022-12-11T14:18:30.956Z,52.70
2022-12-11T14:22:31.034Z,46.80
2022-12-11T14:26:30.334Z,49.90
2022-12-11T14:30:47.902Z,62.00
2022-12-11T14:34:48.184Z,43.10
2022-12-11T14:38:49.816Z,33.10
2022-12-11T14:42:57.055Z,26.70
2022-12-11T14:47:04.971Z,34.40
2022-12-11T14:50:58.965Z,62.00
2022-12-11T14:55:08.177Z,34.50
2022-12-11T14:59:19.889Z,31.30
2022-12-11T15:03:37.682Z,27.90
2022-12-11T15:06:58.092Z,33.10
2022-12-11T15:11:12.864Z,38.50
2022-12-11T15:15:07.734Z,28.00
2022-12-11T15:18:59.257Z,23.80
2022-12-11T15:22:51.990Z,35.20
2022-12-11T15:26:51.006Z,48.90
2022-12-11T15:30:43.696Z,35.70
2022-12-11T15:35:25.976Z,42.30
2022-12-11T15:39:17.786Z,62.60
2022-12-11T15:43:09.042Z,44.40
2022-12-11T15:46:59.473Z,42.20
2022-12-11T15:50:50.025Z,48.30
2022-12-11T15:54:40.723Z,56.20
2022-12-11T15:58:31.637Z,49.90
2022-12-11T16:02:24.476Z,59.50
2022-12-11T16:06:15.308Z,42.60
2022-12-11T16:10:07.689Z,47.40
2022-12-11T16:13:59.187Z,46.60
2022-12-11T16:17:49.387Z,41.60
2022-12-11T16:21:41.217Z,48.90
2022-12-11T16:25:32.968Z,59.30
2022-12-11T16:29:24.480Z,53.30
2022-12-11T16:33:14.911Z,48.40
2022-12-11T16:37:11.742Z,35.80
2022-12-11T16:41:02.339Z,26.40
2022-12-11T16:44:53.154Z,37.50
2022-12-11T16:48:46.011Z,103.80
2022-12-11T16:52:36.868Z,80.10
2022-12-11T16:56:27.433Z,49.80
2022-12-11T17:00:18.245Z,31.40
2022-12-11T17:04:09.973Z,26.60
2022-12-11T17:08:00.438Z,41.00
2022-12-11T17:11:53.664Z,33.40
2022-12-11T17:15:44.720Z,31.70
2022-12-11T17:19:36.265Z,29.50
2022-12-11T17:23:26.870Z,34.70
2022-12-11T17:27:18.015Z,35.50
2022-12-11T17:31:15.955Z,35.70
2022-12-11T17:35:06.806Z,26.70
2022-12-11T17:38:57.926Z,22.20
2022-12-11T17:42:49.044Z,29.90
2022-12-11T17:46:39.184Z,30.80
2022-12-11T17:50:29.651Z,51.90
2022-12-11T17:54:20.456Z,54.80
2022-12-11T17:58:21.848Z,43.00
2022-12-11T18:02:11.962Z,42.00
2022-12-11T18:06:06.766Z,40.00
2022-12-11T18:09:59.411Z,34.10
2022-12-11T18:13:53.554Z,38.00
2022-12-11T18:18:23.522Z,46.10
2022-12-11T18:21:27.711Z,42.10
2022-12-11T18:25:19.035Z,39.30
2022-12-11T18:29:09.739Z,39.50
2022-12-11T18:33:00.039Z,44.30
2022-12-11T18:36:50.338Z,41.30
2022-12-11T18:40:40.331Z,36.90
2022-12-11T18:44:32.064Z,34.80
2022-12-11T18:48:24.210Z,37.80
2022-12-11T18:52:14.749Z,38.50
2022-12-11T18:56:07.953Z,49.80
2022-12-11T19:00:02.485Z,53.90
2022-12-11T19:04:02.719Z,48.80
2022-12-11T19:07:55.851Z,42.80
2022-12-11T19:11:47.634Z,62.30
2022-12-11T19:15:40.914Z,53.90
2022-12-11T19:19:31.613Z,54.70
2022-12-11T19:23:23.172Z,36.20
2022-12-11T19:27:14.008Z,48.00
2022-12-11T19:31:10.046Z,38.50
2022-12-11T19:35:00.773Z,47.10
2022-12-11T19:38:54.369Z,32.10
2022-12-11T19:42:47.414Z,30.50
2022-12-11T19:46:38.561Z,25.90
2022-12-11T19:50:28.932Z,22.40
2022-12-11T19:54:20.163Z,31.60
2022-12-11T19:58:14.550Z,25.10
2022-12-11T20:02:05.310Z,29.00
2022-12-11T20:06:04.137Z,29.50
2022-12-11T20:09:54.563Z,33.90
2022-12-11T20:13:46.095Z,26.00
2022-12-11T20:17:38.113Z,32.10
2022-12-11T20:21:28.841Z,30.90
2022-12-11T20:25:19.417Z,34.40
2022-12-11T20:29:09.642Z,26.80
2022-12-11T20:33:00.456Z,30.10
2022-12-11T20:36:52.190Z,24.00
2022-12-11T20:40:46.380Z,20.80
2022-12-11T20:44:37.504Z,20.60
2022-12-11T20:48:28.513Z,19.00
2022-12-11T20:52:20.042Z,18.20
2022-12-11T20:56:13.960Z,19.40
2022-12-11T21:00:23.373Z,17.00
2022-12-11T21:04:01.285Z,15.80
2022-12-11T21:07:19.736Z,23.90
2022-12-11T21:11:10.679Z,22.80
2022-12-11T21:15:01.051Z,25.40
2022-12-11T21:18:52.169Z,19.80
2022-12-11T21:22:43.904Z,18.10
2022-12-11T21:26:34.510Z,20.10
2022-12-11T21:30:43.752Z,25.10
2022-12-11T21:34:03.234Z,19.50
2022-12-11T21:38:20.481Z,18.50
2022-12-11T21:41:43.228Z,21.80
2022-12-11T21:45:59.378Z,23.40
2022-12-11T21:49:22.072Z,21.70
2022-12-11T21:53:19.162Z,21.50
2022-12-11T21:57:39.572Z,18.00
2022-12-11T22:00:59.075Z,17.10
2022-12-11T22:05:10.582Z,14.70
2022-12-11T22:09:23.541Z,15.10
2022-12-11T22:13:14.252Z,16.20
2022-12-11T22:17:08.856Z,14.10
2022-12-11T22:20:59.878Z,15.80
2022-12-11T22:24:50.884Z,20.70
2022-12-11T22:28:40.977Z,19.90
2022-12-11T22:32:31.278Z,17.10
2022-12-11T22:36:23.521Z,13.30
2022-12-11T22:40:13.616Z,13.50
2022-12-11T22:44:04.020Z,15.10
2022-12-11T22:47:54.319Z,14.70
2022-12-11T22:52:04.073Z,14.50
2022-12-11T22:55:22.124Z,14.40
2022-12-11T22:59:12.724Z,14.50
2022-12-11T23:03:04.046Z,14.90
2022-12-11T23:06:54.654Z,14.90
2022-12-11T23:10:44.952Z,14.80
2022-12-11T23:14:35.354Z,15.20
2022-12-11T23:18:25.392Z,16.60
2022-12-11T23:22:16.159Z,13.60
2022-12-11T23:26:09.430Z,13.70
2022-12-11T23:29:59.524Z,12.20
2022-12-11T23:33:52.113Z,14.70
2022-12-11T23:37:42.342Z,12.70
2022-12-11T23:41:33.001Z,15.70
2022-12-11T23:45:23.280Z,16.60
2022-12-11T23:49:13.580Z,15.40
2022-12-11T23:53:05.826Z,13.60
2022-12-11T23:56:56.126Z,13.20
